sensor_id;sensor_type;location;lat;lon;timestamp;P1;durP1;ratioP1;P2;durP2;ratioP2
8652;SDS011;4364;52.426;9.424;2022-11-15T00:02:17;23.03;;;15.47;;
8652;SDS011;4364;52.426;9.424;2022-11-15T00:05:02;22.90;;;15.73;;
8652;SDS011;4364;52.426;9.424;2022-11-15T00:07:47;23.80;;;15.80;;
8652;SDS011;4364;52.426;9.424;2022-11-15T00:10:39;21.63;;;14.37;;
8652;SDS011;4364;52.426;9.424;2022-11-15T00:13:24;23.13;;;15.50;;
8652;SDS011;4364;52.426;9.424;2022-11-15T00:16:10;24.40;;;14.30;;
8652;SDS011;4364;52.426;9.424;2022-11-15T00:18:55;21.67;;;14.27;;
8652;SDS011;4364;52.426;9.424;2022-11-15T00:21:41;22.27;;;14.33;;
8652;SDS011;4364;52.426;9.424;2022-11-15T00:24:26;21.67;;;13.40;;
8652;SDS011;4364;52.426;9.424;2022-11-15T00:27:12;18.97;;;13.33;;
8652;SDS011;4364;52.426;9.424;2022-11-15T00:29:57;18.27;;;12.57;;
8652;SDS011;4364;52.426;9.424;2022-11-15T00:32:42;18.83;;;12.80;;
8652;SDS011;4364;52.426;9.424;2022-11-15T00:35:28;16.17;;;11.70;;
8652;SDS011;4364;52.426;9.424;2022-11-15T00:38:13;18.13;;;11.93;;
8652;SDS011;4364;52.426;9.424;2022-11-15T00:40:59;19.13;;;12.73;;
8652;SDS011;4364;52.426;9.424;2022-11-15T00:43:53;18.03;;;12.40;;
8652;SDS011;4364;52.426;9.424;2022-11-15T00:46:38;17.40;;;12.70;;
8652;SDS011;4364;52.426;9.424;2022-11-15T00:49:23;18.83;;;12.47;;
8652;SDS011;4364;52.426;9.424;2022-11-15T00:52:08;16.70;;;12.27;;
8652;SDS011;4364;52.426;9.424;2022-11-15T00:54:53;18.37;;;13.00;;
8652;SDS011;4364;52.426;9.424;2022-11-15T00:57:38;19.50;;;12.90;;
8652;SDS011;4364;52.426;9.424;2022-11-15T01:00:23;18.87;;;11.97;;
8652;SDS011;4364;52.426;9.424;2022-11-15T01:03:08;16.33;;;11.57;;
8652;SDS011;4364;52.426;9.424;2022-11-15T01:05:53;16.07;;;11.83;;
8652;SDS011;4364;52.426;9.424;2022-11-15T01:08:39;19.10;;;12.90;;
8652;SDS011;4364;52.426;9.424;2022-11-15T01:11:24;19.23;;;13.07;;
8652;SDS011;4364;52.426;9.424;2022-11-15T01:14:10;17.87;;;12.60;;
8652;SDS011;4364;52.426;9.424;2022-11-15T01:16:55;17.93;;;12.27;;
8652;SDS011;4364;52.426;9.424;2022-11-15T01:19:40;19.00;;;12.47;;
8652;SDS011;4364;52.426;9.424;2022-11-15T01:22:25;18.87;;;12.60;;
8652;SDS011;4364;52.426;9.424;2022-11-15T01:25:10;17.90;;;11.87;;
8652;SDS011;4364;52.426;9.424;2022-11-15T01:27:56;18.77;;;12.47;;
8652;SDS011;4364;52.426;9.424;2022-11-15T01:30:41;18.83;;;12.83;;
8652;SDS011;4364;52.426;9.424;2022-11-15T01:33:27;22.10;;;13.13;;
8652;SDS011;4364;52.426;9.424;2022-11-15T01:36:15;18.53;;;13.00;;
8652;SDS011;4364;52.426;9.424;2022-11-15T01:39:06;17.67;;;12.83;;
8652;SDS011;4364;52.426;9.424;2022-11-15T01:41:52;16.97;;;12.23;;
8652;SDS011;4364;52.426;9.424;2022-11-15T01:44:38;18.63;;;11.57;;
8652;SDS011;4364;52.426;9.424;2022-11-15T01:47:37;19.20;;;11.80;;
8652;SDS011;4364;52.426;9.424;2022-11-15T01:50:27;15.30;;;11.53;;
8652;SDS011;4364;52.426;9.424;2022-11-15T01:53:16;16.27;;;11.53;;
8652;SDS011;4364;52.426;9.424;2022-11-15T01:56:04;18.63;;;12.60;;
8652;SDS011;4364;52.426;9.424;2022-11-15T01:58:52;18.67;;;12.80;;
8652;SDS011;4364;52.426;9.424;2022-11-15T02:01:40;19.83;;;13.33;;
8652;SDS011;4364;52.426;9.424;2022-11-15T02:04:30;18.13;;;12.07;;
8652;SDS011;4364;52.426;9.424;2022-11-15T02:07:18;17.13;;;12.60;;
8652;SDS011;4364;52.426;9.424;2022-11-15T02:10:27;15.30;;;11.23;;
8652;SDS011;4364;52.426;9.424;2022-11-15T02:13:12;17.07;;;12.27;;
8652;SDS011;4364;52.426;9.424;2022-11-15T02:16:07;17.30;;;12.07;;
8652;SDS011;4364;52.426;9.424;2022-11-15T02:28:35;15.97;;;11.27;;
8652;SDS011;4364;52.426;9.424;2022-11-15T02:40:34;13.20;;;10.60;;
8652;SDS011;4364;52.426;9.424;2022-11-15T02:44:11;15.07;;;10.67;;
8652;SDS011;4364;52.426;9.424;2022-11-15T02:50:07;16.50;;;11.57;;
8652;SDS011;4364;52.426;9.424;2022-11-15T02:52:55;18.43;;;11.20;;
8652;SDS011;4364;52.426;9.424;2022-11-15T02:55:44;22.83;;;12.40;;
8652;SDS011;4364;52.426;9.424;2022-11-15T03:08:26;17.03;;;11.93;;
8652;SDS011;4364;52.426;9.424;2022-11-15T03:11:17;17.83;;;12.23;;
8652;SDS011;4364;52.426;9.424;2022-11-15T03:14:24;14.60;;;11.30;;
8652;SDS011;4364;52.426;9.424;2022-11-15T03:17:15;17.93;;;11.80;;
8652;SDS011;4364;52.426;9.424;2022-11-15T03:20:03;16.37;;;12.03;;
8652;SDS011;4364;52.426;9.424;2022-11-15T03:22:51;16.77;;;12.30;;
8652;SDS011;4364;52.426;9.424;2022-11-15T03:25:41;16.17;;;11.67;;
8652;SDS011;4364;52.426;9.424;2022-11-15T03:29:13;17.33;;;11.90;;
8652;SDS011;4364;52.426;9.424;2022-11-15T03:31:43;15.10;;;11.50;;
8652;SDS011;4364;52.426;9.424;2022-11-15T03:34:42;19.10;;;11.83;;
8652;SDS011;4364;52.426;9.424;2022-11-15T03:37:35;16.33;;;11.40;;
8652;SDS011;4364;52.426;9.424;2022-11-15T03:40:27;15.10;;;11.03;;
8652;SDS011;4364;52.426;9.424;2022-11-15T03:43:22;15.37;;;10.73;;
8652;SDS011;4364;52.426;9.424;2022-11-15T03:46:29;16.70;;;11.90;;
8652;SDS011;4364;52.426;9.424;2022-11-15T03:49:25;17.07;;;11.83;;
8652;SDS011;4364;52.426;9.424;2022-11-15T03:52:17;14.67;;;11.00;;
8652;SDS011;4364;52.426;9.424;2022-11-15T03:55:04;15.57;;;9.90;;
8652;SDS011;4364;52.426;9.424;2022-11-15T03:57:52;16.00;;;10.43;;
8652;SDS011;4364;52.426;9.424;2022-11-15T04:00:40;16.03;;;10.20;;
8652;SDS011;4364;52.426;9.424;2022-11-15T04:03:25;18.17;;;10.67;;
8652;SDS011;4364;52.426;9.424;2022-11-15T04:06:10;14.53;;;10.50;;
8652;SDS011;4364;52.426;9.424;2022-11-15T04:08:55;14.37;;;10.17;;
8652;SDS011;4364;52.426;9.424;2022-11-15T04:11:40;15.63;;;10.77;;
8652;SDS011;4364;52.426;9.424;2022-11-15T04:14:25;13.37;;;10.13;;
8652;SDS011;4364;52.426;9.424;2022-11-15T04:17:10;12.27;;;10.17;;
8652;SDS011;4364;52.426;9.424;2022-11-15T04:19:56;11.93;;;10.03;;
8652;SDS011;4364;52.426;9.424;2022-11-15T04:23:00;15.73;;;10.30;;
8652;SDS011;4364;52.426;9.424;2022-11-15T04:28:59;13.87;;;9.97;;
8652;SDS011;4364;52.426;9.424;2022-11-15T04:32:03;14.60;;;10.57;;
8652;SDS011;4364;52.426;9.424;2022-11-15T04:34:50;15.20;;;10.07;;
8652;SDS011;4364;52.426;9.424;2022-11-15T04:37:35;13.03;;;9.73;;
8652;SDS011;4364;52.426;9.424;2022-11-15T04:40:20;13.47;;;9.33;;
8652;SDS011;4364;52.426;9.424;2022-11-15T04:43:05;13.93;;;10.13;;
8652;SDS011;4364;52.426;9.424;2022-11-15T04:45:50;13.70;;;9.10;;
8652;SDS011;4364;52.426;9.424;2022-11-15T04:48:35;12.00;;;9.30;;
8652;SDS011;4364;52.426;9.424;2022-11-15T04:51:20;12.50;;;9.17;;
8652;SDS011;4364;52.426;9.424;2022-11-15T04:54:05;12.53;;;9.40;;
8652;SDS011;4364;52.426;9.424;2022-11-15T04:56:51;13.63;;;9.27;;
8652;SDS011;4364;52.426;9.424;2022-11-15T04:59:36;11.97;;;8.90;;
8652;SDS011;4364;52.426;9.424;2022-11-15T05:02:21;12.27;;;8.70;;
8652;SDS011;4364;52.426;9.424;2022-11-15T05:05:06;10.97;;;8.47;;
8652;SDS011;4364;52.426;9.424;2022-11-15T05:07:52;13.70;;;9.40;;
8652;SDS011;4364;52.426;9.424;2022-11-15T05:10:37;10.13;;;8.00;;
8652;SDS011;4364;52.426;9.424;2022-11-15T05:13:22;10.90;;;8.67;;
8652;SDS011;4364;52.426;9.424;2022-11-15T05:16:07;11.73;;;8.40;;
8652;SDS011;4364;52.426;9.424;2022-11-15T05:18:53;10.00;;;7.40;;
8652;SDS011;4364;52.426;9.424;2022-11-15T05:21:39;12.30;;;8.10;;
8652;SDS011;4364;52.426;9.424;2022-11-15T05:24:24;10.93;;;8.20;;
8652;SDS011;4364;52.426;9.424;2022-11-15T05:27:09;9.83;;;7.90;;
8652;SDS011;4364;52.426;9.424;2022-11-15T05:29:54;10.93;;;7.70;;
8652;SDS011;4364;52.426;9.424;2022-11-15T05:32:39;11.63;;;7.60;;
8652;SDS011;4364;52.426;9.424;2022-11-15T05:35:32;9.13;;;7.13;;
8652;SDS011;4364;52.426;9.424;2022-11-15T05:38:22;9.10;;;7.57;;
8652;SDS011;4364;52.426;9.424;2022-11-15T05:41:08;9.77;;;8.03;;
8652;SDS011;4364;52.426;9.424;2022-11-15T05:43:54;9.60;;;7.90;;
8652;SDS011;4364;52.426;9.424;2022-11-15T05:46:39;13.23;;;8.00;;
8652;SDS011;4364;52.426;9.424;2022-11-15T05:49:26;9.93;;;7.03;;
8652;SDS011;4364;52.426;9.424;2022-11-15T05:52:16;9.23;;;7.13;;
8652;SDS011;4364;52.426;9.424;2022-11-15T05:55:05;8.63;;;7.20;;
8652;SDS011;4364;52.426;9.424;2022-11-15T05:57:53;8.53;;;6.90;;
8652;SDS011;4364;52.426;9.424;2022-11-15T06:00:38;9.73;;;6.90;;
8652;SDS011;4364;52.426;9.424;2022-11-15T06:03:24;8.90;;;6.83;;
8652;SDS011;4364;52.426;9.424;2022-11-15T06:06:09;8.50;;;7.10;;
8652;SDS011;4364;52.426;9.424;2022-11-15T06:09:00;9.00;;;6.73;;
8652;SDS011;4364;52.426;9.424;2022-11-15T06:11:45;10.73;;;7.47;;
8652;SDS011;4364;52.426;9.424;2022-11-15T06:14:31;10.27;;;7.17;;
8652;SDS011;4364;52.426;9.424;2022-11-15T06:17:16;9.60;;;6.80;;
8652;SDS011;4364;52.426;9.424;2022-11-15T06:20:01;9.90;;;6.97;;
8652;SDS011;4364;52.426;9.424;2022-11-15T06:22:47;13.27;;;7.40;;
8652;SDS011;4364;52.426;9.424;2022-11-15T06:25:33;8.70;;;7.03;;
8652;SDS011;4364;52.426;9.424;2022-11-15T06:28:18;8.63;;;6.67;;
8652;SDS011;4364;52.426;9.424;2022-11-15T06:31:10;8.63;;;7.20;;
8652;SDS011;4364;52.426;9.424;2022-11-15T06:33:58;8.97;;;6.83;;
8652;SDS011;4364;52.426;9.424;2022-11-15T06:36:43;9.47;;;7.00;;
8652;SDS011;4364;52.426;9.424;2022-11-15T06:39:28;8.87;;;6.90;;
8652;SDS011;4364;52.426;9.424;2022-11-15T06:42:13;7.87;;;6.43;;
8652;SDS011;4364;52.426;9.424;2022-11-15T06:44:59;9.10;;;7.00;;
8652;SDS011;4364;52.426;9.424;2022-11-15T06:47:45;9.87;;;7.10;;
8652;SDS011;4364;52.426;9.424;2022-11-15T06:50:31;10.87;;;7.17;;
8652;SDS011;4364;52.426;9.424;2022-11-15T06:53:16;10.97;;;7.20;;
8652;SDS011;4364;52.426;9.424;2022-11-15T06:56:01;8.70;;;6.90;;
8652;SDS011;4364;52.426;9.424;2022-11-15T06:58:48;10.17;;;6.93;;
8652;SDS011;4364;52.426;9.424;2022-11-15T07:01:33;9.60;;;7.17;;
8652;SDS011;4364;52.426;9.424;2022-11-15T07:04:18;11.63;;;8.87;;
8652;SDS011;4364;52.426;9.424;2022-11-15T07:07:03;10.70;;;7.40;;
8652;SDS011;4364;52.426;9.424;2022-11-15T07:09:48;8.70;;;6.97;;
8652;SDS011;4364;52.426;9.424;2022-11-15T07:12:34;9.63;;;6.83;;
8652;SDS011;4364;52.426;9.424;2022-11-15T07:15:19;11.77;;;7.53;;
8652;SDS011;4364;52.426;9.424;2022-11-15T07:18:06;13.23;;;7.43;;
8652;SDS011;4364;52.426;9.424;2022-11-15T07:20:51;9.23;;;7.37;;
8652;SDS011;4364;52.426;9.424;2022-11-15T07:23:36;10.63;;;8.13;;
8652;SDS011;4364;52.426;9.424;2022-11-15T07:26:23;10.13;;;7.07;;
8652;SDS011;4364;52.426;9.424;2022-11-15T07:29:08;9.70;;;7.63;;
8652;SDS011;4364;52.426;9.424;2022-11-15T07:31:53;11.13;;;8.13;;
8652;SDS011;4364;52.426;9.424;2022-11-15T07:34:38;12.10;;;7.83;;
8652;SDS011;4364;52.426;9.424;2022-11-15T07:37:23;10.83;;;8.43;;
8652;SDS011;4364;52.426;9.424;2022-11-15T07:40:08;11.67;;;8.33;;
8652;SDS011;4364;52.426;9.424;2022-11-15T07:43:01;9.83;;;7.80;;
8652;SDS011;4364;52.426;9.424;2022-11-15T07:45:46;9.93;;;8.13;;
8652;SDS011;4364;52.426;9.424;2022-11-15T07:48:31;13.23;;;7.80;;
8652;SDS011;4364;52.426;9.424;2022-11-15T07:51:28;10.20;;;7.63;;
8652;SDS011;4364;52.426;9.424;2022-11-15T07:54:13;10.60;;;7.83;;
8652;SDS011;4364;52.426;9.424;2022-11-15T07:56:58;10.07;;;7.60;;
8652;SDS011;4364;52.426;9.424;2022-11-15T07:59:51;13.37;;;8.20;;
8652;SDS011;4364;52.426;9.424;2022-11-15T08:02:36;10.50;;;7.37;;
8652;SDS011;4364;52.426;9.424;2022-11-15T08:05:21;9.83;;;7.13;;
8652;SDS011;4364;52.426;9.424;2022-11-15T08:08:07;9.77;;;7.60;;
8652;SDS011;4364;52.426;9.424;2022-11-15T08:10:54;9.23;;;7.20;;
8652;SDS011;4364;52.426;9.424;2022-11-15T08:13:38;11.17;;;7.03;;
8652;SDS011;4364;52.426;9.424;2022-11-15T08:16:24;12.23;;;7.50;;
8652;SDS011;4364;52.426;9.424;2022-11-15T08:19:08;10.50;;;7.23;;
8652;SDS011;4364;52.426;9.424;2022-11-15T08:21:54;8.87;;;6.83;;
8652;SDS011;4364;52.426;9.424;2022-11-15T08:24:39;9.97;;;6.47;;
8652;SDS011;4364;52.426;9.424;2022-11-15T08:27:24;7.20;;;6.13;;
8652;SDS011;4364;52.426;9.424;2022-11-15T08:30:09;8.10;;;6.33;;
8652;SDS011;4364;52.426;9.424;2022-11-15T08:32:56;8.67;;;6.70;;
8652;SDS011;4364;52.426;9.424;2022-11-15T08:35:42;8.43;;;6.57;;
8652;SDS011;4364;52.426;9.424;2022-11-15T08:38:29;9.73;;;7.10;;
8652;SDS011;4364;52.426;9.424;2022-11-15T08:41:23;9.47;;;6.17;;
8652;SDS011;4364;52.426;9.424;2022-11-15T08:44:11;9.40;;;6.67;;
8652;SDS011;4364;52.426;9.424;2022-11-15T08:46:56;9.57;;;5.90;;
8652;SDS011;4364;52.426;9.424;2022-11-15T08:49:41;8.47;;;6.10;;
8652;SDS011;4364;52.426;9.424;2022-11-15T08:52:27;11.87;;;6.10;;
8652;SDS011;4364;52.426;9.424;2022-11-15T08:55:11;8.93;;;6.10;;
8652;SDS011;4364;52.426;9.424;2022-11-15T08:57:57;8.87;;;6.33;;
8652;SDS011;4364;52.426;9.424;2022-11-15T09:00:42;7.70;;;6.30;;
8652;SDS011;4364;52.426;9.424;2022-11-15T09:03:28;8.07;;;5.93;;
8652;SDS011;4364;52.426;9.424;2022-11-15T09:06:13;10.17;;;6.20;;
8652;SDS011;4364;52.426;9.424;2022-11-15T09:09:00;8.73;;;5.87;;
8652;SDS011;4364;52.426;9.424;2022-11-15T09:11:45;8.53;;;6.53;;
8652;SDS011;4364;52.426;9.424;2022-11-15T09:14:31;7.77;;;5.77;;
8652;SDS011;4364;52.426;9.424;2022-11-15T09:17:16;6.97;;;5.50;;
8652;SDS011;4364;52.426;9.424;2022-11-15T09:20:08;13.30;;;5.43;;
8652;SDS011;4364;52.426;9.424;2022-11-15T09:22:53;6.53;;;4.97;;
8652;SDS011;4364;52.426;9.424;2022-11-15T09:25:39;7.87;;;5.30;;
8652;SDS011;4364;52.426;9.424;2022-11-15T09:28:24;8.50;;;5.00;;
8652;SDS011;4364;52.426;9.424;2022-11-15T09:31:09;7.80;;;5.13;;
8652;SDS011;4364;52.426;9.424;2022-11-15T09:33:55;8.57;;;5.20;;
8652;SDS011;4364;52.426;9.424;2022-11-15T09:36:40;6.83;;;4.93;;
8652;SDS011;4364;52.426;9.424;2022-11-15T09:39:25;6.03;;;4.90;;
8652;SDS011;4364;52.426;9.424;2022-11-15T09:45:29;6.80;;;4.33;;
8652;SDS011;4364;52.426;9.424;2022-11-15T09:51:51;4.60;;;3.40;;
8652;SDS011;4364;52.426;9.424;2022-11-15T09:54:27;4.83;;;3.33;;
8652;SDS011;4364;52.426;9.424;2022-11-15T10:03:33;4.03;;;3.07;;
8652;SDS011;4364;52.426;9.424;2022-11-15T10:06:02;4.83;;;3.70;;
8652;SDS011;4364;52.426;9.424;2022-11-15T10:08:44;4.27;;;3.63;;
8652;SDS011;4364;52.426;9.424;2022-11-15T10:11:20;5.40;;;3.60;;
8652;SDS011;4364;52.426;9.424;2022-11-15T10:14:13;4.20;;;3.30;;
8652;SDS011;4364;52.426;9.424;2022-11-15T10:22:35;4.83;;;3.00;;
8652;SDS011;4364;52.426;9.424;2022-11-15T10:25:20;4.13;;;3.10;;
8652;SDS011;4364;52.426;9.424;2022-11-15T10:27:55;4.50;;;3.37;;
8652;SDS011;4364;52.426;9.424;2022-11-15T10:30:22;4.00;;;3.30;;
8652;SDS011;4364;52.426;9.424;2022-11-15T10:32:54;4.43;;;3.00;;
8652;SDS011;4364;52.426;9.424;2022-11-15T10:35:22;4.97;;;3.20;;
8652;SDS011;4364;52.426;9.424;2022-11-15T10:38:06;7.10;;;3.53;;
8652;SDS011;4364;52.426;9.424;2022-11-15T10:40:35;4.10;;;3.10;;
8652;SDS011;4364;52.426;9.424;2022-11-15T10:43:14;2.77;;;2.53;;
8652;SDS011;4364;52.426;9.424;2022-11-15T10:45:44;3.10;;;2.77;;
8652;SDS011;4364;52.426;9.424;2022-11-15T10:50:40;4.10;;;2.70;;
8652;SDS011;4364;52.426;9.424;2022-11-15T10:53:22;3.17;;;2.80;;
8652;SDS011;4364;52.426;9.424;2022-11-15T10:55:53;8.63;;;4.70;;
8652;SDS011;4364;52.426;9.424;2022-11-15T11:01:17;4.63;;;3.67;;
8652;SDS011;4364;52.426;9.424;2022-11-15T11:04:08;15.60;;;8.73;;
8652;SDS011;4364;52.426;9.424;2022-11-15T11:07:00;7.80;;;3.60;;
8652;SDS011;4364;52.426;9.424;2022-11-15T11:12:02;8.37;;;5.20;;
8652;SDS011;4364;52.426;9.424;2022-11-15T11:14:55;12.80;;;6.90;;
8652;SDS011;4364;52.426;9.424;2022-11-15T11:26:25;3.43;;;2.70;;
8652;SDS011;4364;52.426;9.424;2022-11-15T11:35:12;10.53;;;5.50;;
8652;SDS011;4364;52.426;9.424;2022-11-15T11:37:46;9.77;;;6.20;;
8652;SDS011;4364;52.426;9.424;2022-11-15T11:40:41;4.17;;;3.33;;
8652;SDS011;4364;52.426;9.424;2022-11-15T11:43:30;2.93;;;2.60;;
8652;SDS011;4364;52.426;9.424;2022-11-15T11:49:09;6.70;;;4.53;;
8652;SDS011;4364;52.426;9.424;2022-11-15T11:51:39;4.70;;;3.00;;
8652;SDS011;4364;52.426;9.424;2022-11-15T11:54:29;4.80;;;2.73;;
8652;SDS011;4364;52.426;9.424;2022-11-15T11:57:03;3.37;;;2.30;;
8652;SDS011;4364;52.426;9.424;2022-11-15T11:59:44;3.73;;;2.50;;
8652;SDS011;4364;52.426;9.424;2022-11-15T12:02:21;7.77;;;5.40;;
8652;SDS011;4364;52.426;9.424;2022-11-15T12:04:58;6.27;;;4.57;;
8652;SDS011;4364;52.426;9.424;2022-11-15T12:07:33;4.27;;;2.83;;
8652;SDS011;4364;52.426;9.424;2022-11-15T12:10:11;4.90;;;3.40;;
8652;SDS011;4364;52.426;9.424;2022-11-15T12:12:44;3.20;;;2.63;;
8652;SDS011;4364;52.426;9.424;2022-11-15T12:15:18;3.33;;;2.53;;
8652;SDS011;4364;52.426;9.424;2022-11-15T12:17:48;3.93;;;3.47;;
8652;SDS011;4364;52.426;9.424;2022-11-15T12:22:55;4.73;;;3.30;;
8652;SDS011;4364;52.426;9.424;2022-11-15T12:31:39;4.20;;;2.80;;
8652;SDS011;4364;52.426;9.424;2022-11-15T12:36:54;3.10;;;2.63;;
8652;SDS011;4364;52.426;9.424;2022-11-15T12:40:02;3.93;;;2.87;;
8652;SDS011;4364;52.426;9.424;2022-11-15T12:44:56;4.80;;;3.43;;
8652;SDS011;4364;52.426;9.424;2022-11-15T12:47:25;4.93;;;3.40;;
8652;SDS011;4364;52.426;9.424;2022-11-15T12:49:53;4.23;;;3.43;;
8652;SDS011;4364;52.426;9.424;2022-11-15T12:52:20;4.33;;;3.30;;
8652;SDS011;4364;52.426;9.424;2022-11-15T12:54:51;4.40;;;3.07;;
8652;SDS011;4364;52.426;9.424;2022-11-15T12:59:56;3.70;;;3.03;;
8652;SDS011;4364;52.426;9.424;2022-11-15T13:17:39;3.30;;;2.93;;
8652;SDS011;4364;52.426;9.424;2022-11-15T13:22:46;5.53;;;2.80;;
8652;SDS011;4364;52.426;9.424;2022-11-15T13:31:03;4.43;;;;;
8652;SDS011;4364;52.426;9.424;2022-11-15T13:33:47;5.50;;;3.03;;
8652;SDS011;4364;52.426;9.424;2022-11-15T13:41:34;3.73;;;2.80;;
8652;SDS011;4364;52.426;9.424;2022-11-15T13:44:02;3.70;;;2.83;;
8652;SDS011;4364;52.426;9.424;2022-11-15T13:46:31;3.83;;;2.80;;
8652;SDS011;4364;52.426;9.424;2022-11-15T13:49:07;3.60;;;2.90;;
8652;SDS011;4364;52.426;9.424;2022-11-15T13:51:49;5.17;;;3.03;;
8652;SDS011;4364;52.426;9.424;2022-11-15T13:59:52;5.53;;;3.80;;
8652;SDS011;4364;52.426;9.424;2022-11-15T14:02:30;6.90;;;3.67;;
8652;SDS011;4364;52.426;9.424;2022-11-15T14:05:03;6.23;;;3.90;;
8652;SDS011;4364;52.426;9.424;2022-11-15T14:07:40;6.37;;;4.43;;
8652;SDS011;4364;52.426;9.424;2022-11-15T14:12:57;5.03;;;4.00;;
8652;SDS011;4364;52.426;9.424;2022-11-15T14:15:25;6.00;;;4.00;;
8652;SDS011;4364;52.426;9.424;2022-11-15T14:17:55;5.67;;;3.93;;
8652;SDS011;4364;52.426;9.424;2022-11-15T14:23:03;6.50;;;4.40;;
8652;SDS011;4364;52.426;9.424;2022-11-15T14:25:54;5.93;;;4.40;;
8652;SDS011;4364;52.426;9.424;2022-11-15T14:30:48;5.87;;;4.57;;
8652;SDS011;4364;52.426;9.424;2022-11-15T14:33:22;6.93;;;4.33;;
8652;SDS011;4364;52.426;9.424;2022-11-15T14:35:56;7.00;;;4.20;;
8652;SDS011;4364;52.426;9.424;2022-11-15T14:38:24;10.40;;;4.90;;
8652;SDS011;4364;52.426;9.424;2022-11-15T14:40:51;6.47;;;4.23;;
8652;SDS011;4364;52.426;9.424;2022-11-15T14:43:18;6.13;;;4.67;;
8652;SDS011;4364;52.426;9.424;2022-11-15T14:45:44;7.50;;;4.63;;
8652;SDS011;4364;52.426;9.424;2022-11-15T14:48:11;6.53;;;4.60;;
8652;SDS011;4364;52.426;9.424;2022-11-15T14:50:38;7.00;;;5.00;;
8652;SDS011;4364;52.426;9.424;2022-11-15T14:53:05;7.07;;;4.53;;
8652;SDS011;4364;52.426;9.424;2022-11-15T14:55:33;9.03;;;5.00;;
8652;SDS011;4364;52.426;9.424;2022-11-15T14:58:02;9.90;;;4.90;;
8652;SDS011;4364;52.426;9.424;2022-11-15T15:00:30;9.77;;;4.63;;
8652;SDS011;4364;52.426;9.424;2022-11-15T15:03:01;5.67;;;4.33;;
8652;SDS011;4364;52.426;9.424;2022-11-15T15:05:35;5.43;;;4.37;;
8652;SDS011;4364;52.426;9.424;2022-11-15T15:08:09;6.07;;;4.60;;
8652;SDS011;4364;52.426;9.424;2022-11-15T15:10:38;7.00;;;4.30;;
8652;SDS011;4364;52.426;9.424;2022-11-15T15:13:18;7.13;;;4.50;;
8652;SDS011;4364;52.426;9.424;2022-11-15T15:15:47;5.97;;;4.60;;
8652;SDS011;4364;52.426;9.424;2022-11-15T15:18:15;8.93;;;5.27;;
8652;SDS011;4364;52.426;9.424;2022-11-15T15:20:42;7.00;;;5.30;;
8652;SDS011;4364;52.426;9.424;2022-11-15T15:23:16;7.83;;;4.80;;
8652;SDS011;4364;52.426;9.424;2022-11-15T15:25:45;7.67;;;5.23;;
8652;SDS011;4364;52.426;9.424;2022-11-15T15:28:14;7.07;;;4.80;;
8652;SDS011;4364;52.426;9.424;2022-11-15T15:30:41;8.93;;;5.10;;
8652;SDS011;4364;52.426;9.424;2022-11-15T15:33:07;5.87;;;4.10;;
8652;SDS011;4364;52.426;9.424;2022-11-15T15:35:34;10.90;;;5.00;;
8652;SDS011;4364;52.426;9.424;2022-11-15T15:38:02;8.00;;;5.00;;
8652;SDS011;4364;52.426;9.424;2022-11-15T15:40:30;11.83;;;5.70;;
8652;SDS011;4364;52.426;9.424;2022-11-15T15:42:58;9.70;;;5.27;;
8652;SDS011;4364;52.426;9.424;2022-11-15T15:45:26;8.90;;;4.83;;
8652;SDS011;4364;52.426;9.424;2022-11-15T15:47:54;6.80;;;4.93;;
8652;SDS011;4364;52.426;9.424;2022-11-15T15:52:48;6.17;;;4.40;;
8652;SDS011;4364;52.426;9.424;2022-11-15T15:55:15;5.77;;;4.40;;
8652;SDS011;4364;52.426;9.424;2022-11-15T15:57:41;5.40;;;3.93;;
8652;SDS011;4364;52.426;9.424;2022-11-15T16:00:08;7.90;;;5.37;;
8652;SDS011;4364;52.426;9.424;2022-11-15T16:02:39;6.40;;;4.37;;
8652;SDS011;4364;52.426;9.424;2022-11-15T16:05:06;6.53;;;4.33;;
8652;SDS011;4364;52.426;9.424;2022-11-15T16:07:38;6.53;;;4.57;;
8652;SDS011;4364;52.426;9.424;2022-11-15T16:12:52;7.17;;;4.90;;
8652;SDS011;4364;52.426;9.424;2022-11-15T16:15:20;8.00;;;5.07;;
8652;SDS011;4364;52.426;9.424;2022-11-15T16:17:52;6.97;;;5.43;;
8652;SDS011;4364;52.426;9.424;2022-11-15T16:22:58;7.73;;;5.60;;
8652;SDS011;4364;52.426;9.424;2022-11-15T16:25:53;7.13;;;5.00;;
8652;SDS011;4364;52.426;9.424;2022-11-15T16:28:22;12.13;;;5.60;;
8652;SDS011;4364;52.426;9.424;2022-11-15T16:30:58;7.80;;;4.90;;
8652;SDS011;4364;52.426;9.424;2022-11-15T16:33:30;9.33;;;5.03;;
8652;SDS011;4364;52.426;9.424;2022-11-15T16:35:58;6.60;;;5.80;;
8652;SDS011;4364;52.426;9.424;2022-11-15T16:38:25;9.20;;;6.10;;
8652;SDS011;4364;52.426;9.424;2022-11-15T16:40:51;8.27;;;5.30;;
8652;SDS011;4364;52.426;9.424;2022-11-15T16:43:18;7.20;;;5.00;;
8652;SDS011;4364;52.426;9.424;2022-11-15T16:45:44;7.43;;;5.70;;
8652;SDS011;4364;52.426;9.424;2022-11-15T16:48:19;8.43;;;5.60;;
8652;SDS011;4364;52.426;9.424;2022-11-15T16:50:48;8.43;;;5.43;;
8652;SDS011;4364;52.426;9.424;2022-11-15T16:53:15;8.70;;;5.40;;
8652;SDS011;4364;52.426;9.424;2022-11-15T16:55:42;7.57;;;5.43;;
8652;SDS011;4364;52.426;9.424;2022-11-15T16:58:09;7.43;;;5.20;;
8652;SDS011;4364;52.426;9.424;2022-11-15T17:00:35;6.60;;;5.20;;
8652;SDS011;4364;52.426;9.424;2022-11-15T17:03:02;6.70;;;5.07;;
8652;SDS011;4364;52.426;9.424;2022-11-15T17:05:29;6.53;;;5.27;;
8652;SDS011;4364;52.426;9.424;2022-11-15T17:07:56;6.00;;;4.80;;
8652;SDS011;4364;52.426;9.424;2022-11-15T17:10:23;6.60;;;5.20;;
8652;SDS011;4364;52.426;9.424;2022-11-15T17:12:51;7.30;;;5.20;;
8652;SDS011;4364;52.426;9.424;2022-11-15T17:15:20;6.53;;;4.77;;
8652;SDS011;4364;52.426;9.424;2022-11-15T17:17:51;6.83;;;4.90;;
8652;SDS011;4364;52.426;9.424;2022-11-15T17:20:19;8.00;;;5.30;;
8652;SDS011;4364;52.426;9.424;2022-11-15T17:22:48;7.70;;;5.07;;
8652;SDS011;4364;52.426;9.424;2022-11-15T17:25:15;6.47;;;4.93;;
8652;SDS011;4364;52.426;9.424;2022-11-15T17:27:41;7.17;;;4.83;;
8652;SDS011;4364;52.426;9.424;2022-11-15T17:30:09;8.53;;;6.10;;
8652;SDS011;4364;52.426;9.424;2022-11-15T17:32:45;6.33;;;5.20;;
8652;SDS011;4364;52.426;9.424;2022-11-15T17:35:13;7.13;;;4.87;;
8652;SDS011;4364;52.426;9.424;2022-11-15T17:37:41;8.53;;;5.00;;
8652;SDS011;4364;52.426;9.424;2022-11-15T17:40:08;6.70;;;5.10;;
8652;SDS011;4364;52.426;9.424;2022-11-15T17:42:35;7.70;;;5.20;;
8652;SDS011;4364;52.426;9.424;2022-11-15T17:45:02;9.47;;;5.63;;
8652;SDS011;4364;52.426;9.424;2022-11-15T17:47:35;9.60;;;5.00;;
8652;SDS011;4364;52.426;9.424;2022-11-15T17:50:01;7.23;;;5.33;;
8652;SDS011;4364;52.426;9.424;2022-11-15T17:52:29;8.57;;;5.30;;
8652;SDS011;4364;52.426;9.424;2022-11-15T17:54:55;6.80;;;5.37;;
8652;SDS011;4364;52.426;9.424;2022-11-15T17:57:22;8.60;;;5.70;;
8652;SDS011;4364;52.426;9.424;2022-11-15T17:59:48;7.57;;;5.40;;
8652;SDS011;4364;52.426;9.424;2022-11-15T18:02:15;8.90;;;5.50;;
8652;SDS011;4364;52.426;9.424;2022-11-15T18:04:41;9.87;;;7.00;;
8652;SDS011;4364;52.426;9.424;2022-11-15T18:07:08;13.13;;;7.80;;
8652;SDS011;4364;52.426;9.424;2022-11-15T18:09:36;12.47;;;7.17;;
8652;SDS011;4364;52.426;9.424;2022-11-15T18:12:07;8.93;;;6.57;;
8652;SDS011;4364;52.426;9.424;2022-11-15T18:14:34;8.50;;;6.57;;
8652;SDS011;4364;52.426;9.424;2022-11-15T18:17:02;7.93;;;6.30;;
8652;SDS011;4364;52.426;9.424;2022-11-15T18:19:29;7.93;;;5.90;;
8652;SDS011;4364;52.426;9.424;2022-11-15T18:21:55;7.93;;;6.23;;
8652;SDS011;4364;52.426;9.424;2022-11-15T18:24:22;8.13;;;6.10;;
8652;SDS011;4364;52.426;9.424;2022-11-15T18:26:52;8.63;;;6.13;;
8652;SDS011;4364;52.426;9.424;2022-11-15T18:29:19;9.70;;;7.10;;
8652;SDS011;4364;52.426;9.424;2022-11-15T18:31:46;10.47;;;7.27;;
8652;SDS011;4364;52.426;9.424;2022-11-15T18:34:15;10.83;;;6.80;;
8652;SDS011;4364;52.426;9.424;2022-11-15T18:36:42;10.03;;;7.57;;
8652;SDS011;4364;52.426;9.424;2022-11-15T18:39:09;9.20;;;7.33;;
8652;SDS011;4364;52.426;9.424;2022-11-15T18:41:42;11.63;;;7.73;;
8652;SDS011;4364;52.426;9.424;2022-11-15T18:44:09;10.90;;;7.80;;
8652;SDS011;4364;52.426;9.424;2022-11-15T18:46:36;10.63;;;7.40;;
8652;SDS011;4364;52.426;9.424;2022-11-15T18:49:04;11.37;;;7.40;;
8652;SDS011;4364;52.426;9.424;2022-11-15T18:51:35;9.83;;;7.83;;
8652;SDS011;4364;52.426;9.424;2022-11-15T18:54:07;12.63;;;7.10;;